Airport details for: LJPZ (Slovenia)

Metar

LJPZ 301030Z 35008KT 300V060 9999 FEW050 18/03 Q1015

General details

ICAO: LJPZ
IATA: POW
Name (city): Secovlje
Major:
Country: Slovenia
vACC: vACC Slovenia
Description:
Scenery links:
FS9 scenery:
FSX/P3D scenery: Download
XP scenery: Download
Elevation: 7 ft.
Transition altitude: 10500 ft.
MSA: 3900 ft.
Latitude: 45.473347
Longitude: 13.614975
LJPZ Charts
LJPZ Notams
LJPZ Online stations

Runways

Number Course Length Elevation Lat Lon ILS ILS freq ILS FAC GP
15 149° 3937ft / 1200 m 5ft 45.477178 13.611983 - - 3.0°
33 329° 3937ft / 1200 m 6ft 45.469522 13.617961 - - 3.0°